Time;durP1;ratioP1;P1;durP2;ratioP2;P2;SDS_P1;SDS_P2;PMS_P1;PMS_P2;Temp;Humidity;BMP_temperature;BMP_pressure;BME280_temperature;BME280_humidity;BME280_pressure;Samples;Min_cycle;Max_cycle;Signal;HPM_P1;HPM_P2
2021/03/19 00:01:54;;;;;;;;;;;;;;;21.80;24.74;97592.44;5063847;28;908;-73
2021/03/19 00:04:23;;;;;;;;;;;;;;;21.61;25.15;97587.84;5063568;28;873;-74
2021/03/19 00:06:48;;;;;;;;;;;;;;;21.78;24.74;97585.66;5063566;28;1902;-74
2021/03/19 00:09:14;;;;;;;;;;;;;;;22.24;24.40;97581.25;5063716;28;657;-74
2021/03/19 00:11:39;;;;;;;;;;;;;;;22.47;23.69;97587.72;5063482;28;599;-74
2021/03/19 00:14:05;;;;;;;;;;;;;;;22.56;23.77;97584.94;5063285;28;987;-74
2021/03/19 00:16:31;;;;;;;;;;;;;;;22.12;24.33;97579.22;5062988;28;1142;-74
2021/03/19 00:18:56;;;;;;;;;;;;;;;21.82;24.77;97572.97;5063532;28;1030;-74
2021/03/19 00:21:22;;;;;;;;;;;;;;;21.42;25.41;97563.41;5063668;28;662;-73
2021/03/19 00:23:47;;;;;;;;;;;;;;;22.28;24.36;97552.78;5063519;28;659;-73
2021/03/19 00:26:13;;;;;;;;;;;;;;;22.62;23.71;97554.75;5063641;28;1977;-74
2021/03/19 00:28:38;;;;;;;;;;;;;;;22.45;23.47;97561.88;5063186;28;720;-74
2021/03/19 00:31:04;;;;;;;;;;;;;;;22.14;23.99;97554.06;5063433;28;1058;-74
2021/03/19 00:33:29;;;;;;;;;;;;;;;21.04;25.21;97548.00;5062840;28;801;-74
2021/03/19 00:35:55;;;;;;;;;;;;;;;21.84;24.68;97547.78;5063173;28;1127;-74
2021/03/19 00:38:20;;;;;;;;;;;;;;;21.82;24.52;97550.31;5063037;28;635;-74
2021/03/19 00:40:46;;;;;;;;;;;;;;;21.81;24.69;97554.38;5062971;28;619;-74
2021/03/19 00:43:12;;;;;;;;;;;;;;;21.67;24.79;97542.75;5063121;28;871;-73
2021/03/19 00:45:37;;;;;;;;;;;;;;;21.66;24.91;97524.97;5062161;28;1898;-73
2021/03/19 00:48:03;;;;;;;;;;;;;;;21.68;24.88;97533.78;5062548;28;880;-74
2021/03/19 00:50:35;;;;;;;;;;;;;;;21.71;24.80;97526.41;5062816;28;821;-74
2021/03/19 00:53:01;;;;;;;;;;;;;;;22.30;24.02;97534.03;5063184;28;646;-74
2021/03/19 00:55:27;;;;;;;;;;;;;;;22.65;23.28;97530.34;5062654;28;622;-74
2021/03/19 00:57:52;;;;;;;;;;;;;;;22.68;23.41;97529.41;5062585;28;902;-73
2021/03/19 01:00:18;;;;;;;;;;;;;;;22.18;24.17;97520.75;5062597;28;952;-74
2021/03/19 01:02:44;;;;;;;;;;;;;;;21.83;24.49;97517.91;5062569;28;910;-73
2021/03/19 01:05:10;;;;;;;;;;;;;;;21.76;24.56;97523.81;5062845;28;738;-74
2021/03/19 01:07:36;;;;;;;;;;;;;;;22.02;24.29;97530.19;5061905;28;682;-73
2021/03/19 01:10:03;;;;;;;;;;;;;;;22.60;23.31;97535.34;5061846;28;619;-73
2021/03/19 01:12:29;;;;;;;;;;;;;;;22.65;23.38;97525.47;5062091;28;915;-73
2021/03/19 01:14:54;;;;;;;;;;;;;;;22.44;23.71;97523.44;5062206;28;1379;-74
2021/03/19 01:17:20;;;;;;;;;;;;;;;21.97;23.98;97532.81;5062162;28;950;-73
2021/03/19 01:19:45;;;;;;;;;;;;;;;21.96;23.97;97531.22;5062663;28;619;-73
2021/03/19 01:22:11;;;;;;;;;;;;;;;22.07;24.22;97534.44;5062176;28;698;-74
2021/03/19 01:24:36;;;;;;;;;;;;;;;22.18;23.82;97532.06;5062123;28;639;-74
2021/03/19 01:27:02;;;;;;;;;;;;;;;22.16;23.97;97534.56;5061806;28;1918;-73
2021/03/19 01:29:27;;;;;;;;;;;;;;;21.92;24.31;97530.56;5061767;28;844;-74
2021/03/19 01:31:52;;;;;;;;;;;;;;;21.67;24.65;97532.22;5062287;28;833;-74
2021/03/19 01:34:18;;;;;;;;;;;;;;;21.61;24.67;97524.78;5062281;28;634;-71
2021/03/19 01:36:44;;;;;;;;;;;;;;;21.66;24.92;97533.47;5062628;28;595;-73
2021/03/19 01:39:09;;;;;;;;;;;;;;;21.50;24.96;97539.25;5061844;28;668;-73
2021/03/19 01:41:35;;;;;;;;;;;;;;;22.01;24.17;97533.47;5061541;28;873;-74
2021/03/19 01:44:01;;;;;;;;;;;;;;;22.55;23.55;97527.44;5060967;28;920;-74
2021/03/19 01:46:45;;;;;;;;;;;;;;;22.77;22.81;97530.25;5061629;28;1909;-73
2021/03/19 01:49:29;;;;;;;;;;;;;;;21.93;24.06;97526.47;5061837;28;774;-72
2021/03/19 01:52:23;;;;;;;;;;;;;;;21.45;25.04;97539.84;5061653;28;686;-74
2021/03/19 01:55:06;;;;;;;;;;;;;;;21.88;24.46;97527.06;5061620;28;688;-73
2021/03/19 01:58:07;;;;;;;;;;;;;;;22.19;23.81;97532.88;5061212;28;843;-73
2021/03/19 02:00:51;;;;;;;;;;;;;;;22.45;23.33;97533.53;5003968;28;1095;-73
2021/03/19 02:03:35;;;;;;;;;;;;;;;22.40;23.48;97542.63;5058114;28;1052;-73
2021/03/19 02:06:19;;;;;;;;;;;;;;;22.25;23.14;97540.31;5061341;28;1972;-73
2021/03/19 02:09:03;;;;;;;;;;;;;;;22.00;23.67;97543.22;5061396;28;637;-73
2021/03/19 02:11:47;;;;;;;;;;;;;;;21.72;24.20;97539.34;5061213;28;689;-73
2021/03/19 02:14:31;;;;;;;;;;;;;;;22.05;24.30;97545.47;5060739;28;969;-73
2021/03/19 02:17:15;;;;;;;;;;;;;;;22.72;23.46;97542.19;5060900;28;901;-73
2021/03/19 02:20:00;;;;;;;;;;;;;;;22.07;23.81;97540.13;5060782;28;639;-73
2021/03/19 02:22:44;;;;;;;;;;;;;;;21.79;24.24;97539.88;5060608;28;1417;-74
2021/03/19 02:25:28;;;;;;;;;;;;;;;21.55;24.95;97552.84;5061029;28;630;-74
2021/03/19 02:28:12;;;;;;;;;;;;;;;21.77;24.43;97542.38;5061065;28;614;-74
2021/03/19 02:30:56;;;;;;;;;;;;;;;22.17;23.86;97546.69;5060578;28;978;-74
2021/03/19 02:33:22;;;;;;;;;;;;;;;22.34;23.79;97550.94;5060556;28;959;-73
2021/03/19 02:35:54;;;;;;;;;;;;;;;22.38;23.43;97550.78;5060852;28;686;-73
2021/03/19 02:38:20;;;;;;;;;;;;;;;22.06;23.55;97552.72;5060694;28;650;-74
2021/03/19 02:40:45;;;;;;;;;;;;;;;21.81;23.90;97553.56;5060474;28;642;-74
2021/03/19 02:43:11;;;;;;;;;;;;;;;21.71;24.06;97549.88;5060340;28;976;-73
2021/03/19 02:45:36;;;;;;;;;;;;;;;21.96;24.17;97549.00;5060239;28;1898;-73
2021/03/19 02:48:01;;;;;;;;;;;;;;;22.15;23.84;97547.16;5060551;28;904;-74
2021/03/19 02:50:27;;;;;;;;;;;;;;;22.26;23.63;97544.72;5060974;28;649;-74
2021/03/19 02:52:52;;;;;;;;;;;;;;;22.47;23.35;97543.13;5060478;28;677;-74
2021/03/19 02:55:18;;;;;;;;;;;;;;;22.30;23.46;97539.72;5060504;28;619;-73
2021/03/19 02:57:43;;;;;;;;;;;;;;;22.02;23.74;97540.69;5060511;28;960;-74
2021/03/19 03:00:10;;;;;;;;;;;;;;;21.76;23.76;97548.50;5060141;28;834;-73
2021/03/19 03:02:36;;;;;;;;;;;;;;;21.43;24.51;97539.50;5059622;28;1066;-74
2021/03/19 03:05:01;;;;;;;;;;;;;;;22.07;24.27;97540.13;5060484;28;670;-74
2021/03/19 03:07:27;;;;;;;;;;;;;;;22.87;23.01;97565.91;5059647;28;1902;-74
2021/03/19 03:09:53;;;;;;;;;;;;;;;22.34;23.58;97534.72;5060561;28;563;-74
2021/03/19 03:12:18;;;;;;;;;;;;;;;21.83;24.30;97534.88;5060209;28;922;-74
2021/03/19 03:14:44;;;;;;;;;;;;;;;21.90;24.32;97530.22;5060101;28;962;-73
2021/03/19 03:17:10;;;;;;;;;;;;;;;21.96;23.90;97525.53;5060391;28;1055;-74
2021/03/19 03:19:35;;;;;;;;;;;;;;;22.25;23.63;97522.50;5060110;28;659;-74
2021/03/19 03:22:01;;;;;;;;;;;;;;;22.39;23.45;97521.22;5059511;28;678;-74
2021/03/19 03:24:26;;;;;;;;;;;;;;;22.42;23.51;97523.09;5042632;28;1275;-74
2021/03/19 03:26:52;;;;;;;;;;;;;;;22.57;22.96;97524.13;5060008;28;1975;-74
2021/03/19 03:29:17;;;;;;;;;;;;;;;22.35;22.99;97519.28;5059667;28;821;-73
2021/03/19 03:31:43;;;;;;;;;;;;;;;21.82;23.89;97510.66;5059459;28;992;-74
2021/03/19 03:34:09;;;;;;;;;;;;;;;21.77;24.05;97521.78;5042885;28;1136;-74
2021/03/19 03:36:34;;;;;;;;;;;;;;;22.01;24.06;97522.91;5060168;28;677;-74
2021/03/19 03:39:00;;;;;;;;;;;;;;;22.61;23.46;97519.91;5060060;28;662;-74
2021/03/19 03:41:26;;;;;;;;;;;;;;;22.77;23.02;97518.91;5059972;28;957;-74
2021/03/19 03:43:51;;;;;;;;;;;;;;;22.09;23.77;97523.47;5059889;28;883;-74
2021/03/19 03:46:18;;;;;;;;;;;;;;;21.10;24.89;97527.63;5060066;28;1894;-74
2021/03/19 03:48:44;;;;;;;;;;;;;;;21.69;24.44;97521.22;5060303;28;670;-74
2021/03/19 03:51:09;;;;;;;;;;;;;;;22.60;23.12;97528.91;5060199;28;619;-74
2021/03/19 03:53:36;;;;;;;;;;;;;;;23.06;22.70;97534.84;5060202;28;757;-74
2021/03/19 03:56:01;;;;;;;;;;;;;;;22.56;22.85;97529.03;5059716;28;1050;-74
2021/03/19 03:58:27;;;;;;;;;;;;;;;21.95;23.88;97529.63;5059498;28;809;-74
2021/03/19 04:00:52;;;;;;;;;;;;;;;22.21;23.62;97533.97;5060003;28;928;-73
2021/03/19 04:03:18;;;;;;;;;;;;;;;22.27;23.79;97534.16;5059638;28;639;-74
2021/03/19 04:05:45;;;;;;;;;;;;;;;22.45;23.35;97533.53;5059727;28;1887;-74
2021/03/19 04:08:11;;;;;;;;;;;;;;;22.47;23.20;97531.78;5059744;28;923;-74
2021/03/19 04:10:37;;;;;;;;;;;;;;;22.15;23.31;97532.97;5059207;28;906;-74
2021/03/19 04:13:02;;;;;;;;;;;;;;;21.95;23.78;97535.31;5059625;28;774;-73
2021/03/19 04:15:28;;;;;;;;;;;;;;;20.19;24.06;97279.31;5059802;28;986;-74
2021/03/19 04:18:01;;;;;;;;;;;;;;;21.92;24.03;97525.69;5059945;28;638;-74
2021/03/19 04:20:26;;;;;;;;;;;;;;;22.96;22.56;97527.53;5059673;28;655;-73
2021/03/19 04:22:52;;;;;;;;;;;;;;;22.41;22.90;97533.66;5059612;28;946;-74
2021/03/19 04:25:17;;;;;;;;;;;;;;;22.21;23.31;97531.13;5059141;28;924;-74
2021/03/19 04:27:51;;;;;;;;;;;;;;;21.99;23.33;97530.31;5059319;28;1901;-73
2021/03/19 04:30:24;;;;;;;;;;;;;;;21.85;23.96;97521.06;5059087;28;622;-73
2021/03/19 04:32:49;;;;;;;;;;;;;;;22.26;23.45;97530.53;5059298;28;667;-73
2021/03/19 04:35:16;;;;;;;;;;;;;;;22.06;23.52;97535.69;5058185;28;811;-73
2021/03/19 04:37:41;;;;;;;;;;;;;;;21.76;23.90;97529.47;5059177;28;887;-74
2021/03/19 04:40:07;;;;;;;;;;;;;;;21.72;24.02;97534.47;5059128;28;924;-74
2021/03/19 04:42:32;;;;;;;;;;;;;;;21.73;23.76;97533.22;5059683;28;898;-74
2021/03/19 04:44:58;;;;;;;;;;;;;;;21.94;23.42;97528.06;5063049;28;671;-74
2021/03/19 04:47:23;;;;;;;;;;;;;;;22.02;23.46;97529.38;5062175;28;1902;-74
2021/03/19 04:49:49;;;;;;;;;;;;;;;22.09;23.22;97531.97;5062830;28;658;-74
2021/03/19 04:52:14;;;;;;;;;;;;;;;21.90;23.70;97530.22;5062975;28;995;-74
2021/03/19 04:54:40;;;;;;;;;;;;;;;21.94;23.58;97533.72;5028874;28;1150;-73
2021/03/19 04:57:05;;;;;;;;;;;;;;;21.53;24.32;97532.69;5062919;28;900;-72
2021/03/19 04:59:31;;;;;;;;;;;;;;;21.30;24.60;97537.50;5045582;28;599;-73
2021/03/19 05:01:57;;;;;;;;;;;;;;;22.03;23.54;97522.47;5062685;28;677;-74
2021/03/19 05:04:23;;;;;;;;;;;;;;;21.81;23.79;97526.06;5062312;28;1106;-72
2021/03/19 05:06:50;;;;;;;;;;;;;;;21.67;23.86;97526.56;5044785;28;1935;-72
2021/03/19 05:09:16;;;;;;;;;;;;;;;21.70;23.80;97536.94;5061736;28;1136;-74
2021/03/19 05:11:41;;;;;;;;;;;;;;;21.22;24.65;97536.09;5063008;28;587;-73
2021/03/19 05:14:07;;;;;;;;;;;;;;;22.16;23.21;97540.22;5062648;28;631;-73
2021/03/19 05:16:32;;;;;;;;;;;;;;;21.94;23.37;97533.72;5062416;28;1119;-73
2021/03/19 05:18:58;;;;;;;;;;;;;;;21.69;23.85;97532.53;5061847;28;1097;-73
2021/03/19 05:21:23;;;;;;;;;;;;;;;21.12;24.63;97540.06;5062176;28;954;-73
2021/03/19 05:23:49;;;;;;;;;;;;;;;22.83;22.43;97542.56;5062286;28;950;-73
2021/03/19 05:26:14;;;;;;;;;;;;;;;22.75;22.36;97535.59;5062404;28;1978;-73
2021/03/19 05:28:39;;;;;;;;;;;;;;;22.25;23.14;97548.81;5062334;28;666;-74
2021/03/19 05:31:05;;;;;;;;;;;;;;;21.89;23.41;97542.81;5062217;28;647;-73
2021/03/19 05:33:46;;;;;;;;;;;;;;;22.22;22.84;97552.56;5062048;28;961;-73
2021/03/19 05:36:12;;;;;;;;;;;;;;;22.62;22.33;97543.41;5061848;28;858;-73
2021/03/19 05:38:38;;;;;;;;;;;;;;;22.03;23.29;97551.59;5062234;28;677;-73
2021/03/19 05:41:03;;;;;;;;;;;;;;;21.82;23.29;97560.84;5061809;28;619;-73
2021/03/19 05:43:32;;;;;;;;;;;;;;;21.92;23.25;97559.69;5061999;28;662;-73
2021/03/19 05:45:57;;;;;;;;;;;;;;;21.98;23.42;97552.19;5062002;28;1968;-73
2021/03/19 05:48:23;;;;;;;;;;;;;;;22.10;23.26;97553.38;5061505;28;1039;-73
2021/03/19 05:50:49;;;;;;;;;;;;;;;22.21;23.01;97559.47;5060600;28;890;-73
2021/03/19 05:53:15;;;;;;;;;;;;;;;21.97;23.36;97561.16;5060837;28;904;-74
2021/03/19 05:55:40;;;;;;;;;;;;;;;21.94;23.46;97573.38;5061334;28;658;-73
2021/03/19 05:58:07;;;;;;;;;;;;;;;21.76;23.81;97571.16;5061572;28;651;-73
2021/03/19 06:00:33;;;;;;;;;;;;;;;21.72;23.79;97585.44;5061800;28;687;-74
2021/03/19 06:03:01;;;;;;;;;;;;;;;22.15;22.86;97588.88;5061168;28;954;-74
2021/03/19 06:05:27;;;;;;;;;;;;;;;21.55;23.68;97593.28;5061087;28;1890;-73
2021/03/19 06:07:54;;;;;;;;;;;;;;;21.93;23.57;97591.63;5061376;28;876;-73
2021/03/19 06:10:27;;;;;;;;;;;;;;;21.93;23.39;97583.13;5061628;28;659;-73
2021/03/19 06:13:12;;;;;;;;;;;;;;;21.85;23.35;97589.03;5061515;28;958;-71
2021/03/19 06:15:42;;;;;;;;;;;;;;;22.02;23.15;97598.19;5061101;28;1019;-73
2021/03/19 06:18:20;;;;;;;;;;;;;;;22.08;23.14;97601.22;5060542;28;660;-73
2021/03/19 06:20:50;;;;;;;;;;;;;;;20.90;24.61;97602.16;5060799;28;963;-73
2021/03/19 06:23:16;;;;;;;;;;;;;;;22.17;23.16;97598.47;5060077;28;856;-73
2021/03/19 06:25:42;;;;;;;;;;;;;;;22.56;22.57;97599.13;5060269;28;1910;-74
2021/03/19 06:28:23;;;;;;;;;;;;;;;22.52;22.60;97595.63;5060413;28;678;-73
2021/03/19 06:30:49;;;;;;;;;;;;;;;22.33;22.63;97606.03;5060994;28;669;-73
2021/03/19 06:33:14;;;;;;;;;;;;;;;22.07;23.34;97596.78;5060362;28;733;-73
2021/03/19 06:35:40;;;;;;;;;;;;;;;22.21;22.88;97601.97;5059485;28;1127;-72
2021/03/19 06:38:41;;;;;;;;;;;;;;;22.32;22.70;97605.22;5060581;28;803;-72
2021/03/19 06:41:25;;;;;;;;;;;;;;;21.91;23.30;97611.91;4998952;28;1123;-72
2021/03/19 06:43:50;;;;;;;;;;;;;;;21.81;23.61;97616.69;5046313;28;864;-71
2021/03/19 06:46:26;;;;;;;;;;;;;;;22.05;23.35;97613.47;5052841;28;1893;-71
2021/03/19 06:48:54;;;;;;;;;;;;;;;22.41;22.91;97617.91;5023308;28;778;-73
2021/03/19 06:51:23;;;;;;;;;;;;;;;22.04;23.33;97611.88;5040269;28;882;-74
2021/03/19 06:54:08;;;;;;;;;;;;;;;21.97;23.52;97612.94;5040315;28;831;-74
2021/03/19 06:56:33;;;;;;;;;;;;;;;21.71;23.69;97623.50;5007300;28;1158;-73
2021/03/19 06:58:59;;;;;;;;;;;;;;;21.96;23.26;97627.53;5039978;28;726;-72
2021/03/19 07:01:28;;;;;;;;;;;;;;;21.89;23.33;97630.59;5030917;28;983;-71
2021/03/19 07:04:13;;;;;;;;;;;;;;;22.19;23.18;97630.00;5059553;28;910;-71
2021/03/19 07:06:54;;;;;;;;;;;;;;;22.04;23.20;97634.53;5058335;28;1902;-71
2021/03/19 07:09:44;;;;;;;;;;;;;;;21.76;23.76;97642.75;5059827;28;687;-73
2021/03/19 07:12:18;;;;;;;;;;;;;;;21.76;23.83;97642.75;5060159;28;705;-73
2021/03/19 07:14:58;;;;;;;;;;;;;;;21.84;23.71;97646.94;5059865;28;1312;-73
2021/03/19 07:17:42;;;;;;;;;;;;;;;22.84;22.01;97651.94;5042846;28;718;-73
2021/03/19 07:20:11;;;;;;;;;;;;;;;22.14;23.13;97656.09;5059447;28;878;-71
2021/03/19 07:22:45;;;;;;;;;;;;;;;21.87;23.45;97661.44;5059581;28;895;-74
2021/03/19 07:25:14;;;;;;;;;;;;;;;21.66;23.99;97663.72;5059868;28;691;-75
2021/03/19 07:27:58;;;;;;;;;;;;;;;22.14;23.27;97673.09;5059772;28;1985;-72
2021/03/19 07:30:23;;;;;;;;;;;;;;;22.04;23.59;97660.84;5059687;28;658;-73
2021/03/19 07:32:58;;;;;;;;;;;;;;;22.08;23.28;97663.56;5059782;28;591;-73
2021/03/19 07:35:23;;;;;;;;;;;;;;;21.84;23.68;97655.41;5059811;28;1033;-72
2021/03/19 07:37:49;;;;;;;;;;;;;;;21.88;23.79;97660.97;5059465;28;896;-73
2021/03/19 07:40:14;;;;;;;;;;;;;;;21.67;23.85;97656.81;5059549;28;973;-73
2021/03/19 07:42:40;;;;;;;;;;;;;;;21.71;23.72;97663.16;5059680;28;697;-71
2021/03/19 07:45:15;;;;;;;;;;;;;;;21.77;23.90;97654.88;5060155;28;715;-73
2021/03/19 07:47:49;;;;;;;;;;;;;;;21.58;24.11;97659.53;5059819;28;1918;-73
2021/03/19 07:50:23;;;;;;;;;;;;;;;21.79;23.54;97656.00;5059234;28;840;-74
2021/03/19 07:52:55;;;;;;;;;;;;;;;21.67;23.88;97650.34;5042353;28;828;-74
2021/03/19 07:55:44;;;;;;;;;;;;;;;21.66;24.03;97660.06;5059753;28;638;-73
2021/03/19 07:58:25;;;;;;;;;;;;;;;21.19;24.60;97661.50;5042746;28;707;-74
2021/03/19 08:00:58;;;;;;;;;;;;;;;21.44;24.26;97654.31;5059462;28;680;-73
2021/03/19 08:03:27;;;;;;;;;;;;;;;22.40;23.23;97656.00;5042052;28;1078;-73
2021/03/19 08:05:52;;;;;;;;;;;;;;;22.65;22.68;97661.59;5042122;28;1965;-73
2021/03/19 08:08:32;;;;;;;;;;;;;;;22.63;22.52;97662.03;5059736;28;802;-73
2021/03/19 08:11:13;;;;;;;;;;;;;;;21.97;23.39;97663.13;5042336;28;610;-72
2021/03/19 08:13:43;;;;;;;;;;;;;;;21.64;23.87;97657.69;5059420;28;623;-73
2021/03/19 08:16:29;;;;;;;;;;;;;;;21.79;23.51;97669.38;5059416;28;1063;-74
2021/03/19 08:18:55;;;;;;;;;;;;;;;21.78;24.01;97662.91;5044447;28;957;-73
2021/03/19 08:21:29;;;;;;;;;;;;;;;21.63;24.07;97667.44;5062950;28;792;-73
2021/03/19 08:24:13;;;;;;;;;;;;;;;21.74;23.94;97672.75;5063206;28;663;-73
2021/03/19 08:26:42;;;;;;;;;;;;;;;21.73;23.82;97663.47;5063114;28;1960;-73
2021/03/19 08:29:19;;;;;;;;;;;;;;;21.67;24.05;97662.47;5045754;28;671;-74
2021/03/19 08:31:45;;;;;;;;;;;;;;;22.28;23.19;97664.09;5063324;28;670;-73
2021/03/19 08:34:29;;;;;;;;;;;;;;;22.43;22.75;97672.09;5062731;28;1035;-74
2021/03/19 08:36:54;;;;;;;;;;;;;;;22.53;22.60;97665.25;5062701;28;849;-74
2021/03/19 08:39:32;;;;;;;;;;;;;;;21.91;23.76;97664.91;5062753;28;866;-74
2021/03/19 08:42:11;;;;;;;;;;;;;;;21.80;23.79;97666.06;5062975;28;646;-73
2021/03/19 08:44:37;;;;;;;;;;;;;;;21.87;23.86;97669.94;5045849;28;1143;-73
2021/03/19 08:47:25;;;;;;;;;;;;;;;22.19;23.30;97672.50;5045531;28;1902;-73
2021/03/19 08:49:58;;;;;;;;;;;;;;;22.56;22.65;97670.00;5062382;28;961;-74
2021/03/19 08:52:23;;;;;;;;;;;;;;;22.15;23.25;97654.84;5044400;28;1209;-73
2021/03/19 08:55:09;;;;;;;;;;;;;;;21.85;23.44;97645.66;5062682;28;947;-74
2021/03/19 08:57:35;;;;;;;;;;;;;;;21.57;23.68;97640.94;5062398;28;1325;-72
2021/03/19 09:00:01;;;;;;;;;;;;;;;21.89;23.86;97639.91;5062455;28;675;-73
2021/03/19 09:02:26;;;;;;;;;;;;;;;22.39;22.82;97643.88;5062419;28;897;-74
2021/03/19 09:05:00;;;;;;;;;;;;;;;22.69;22.40;97653.75;5062205;28;905;-73
2021/03/19 09:07:26;;;;;;;;;;;;;;;22.14;23.01;97660.97;5061818;28;1906;-73
2021/03/19 09:09:52;;;;;;;;;;;;;;;21.77;23.67;97647.16;5062406;28;782;-72
2021/03/19 09:12:22;;;;;;;;;;;;;;;21.55;23.98;97643.44;5044936;28;655;-72
2021/03/19 09:14:48;;;;;;;;;;;;;;;21.83;23.62;97653.84;5062255;28;947;-72
2021/03/19 09:17:21;;;;;;;;;;;;;;;21.60;23.75;97662.69;5061723;28;921;-71
2021/03/19 09:19:58;;;;;;;;;;;;;;;21.68;23.73;97661.22;5061935;28;831;-72
2021/03/19 09:22:24;;;;;;;;;;;;;;;22.02;23.24;97665.34;5062146;28;642;-73
2021/03/19 09:25:12;;;;;;;;;;;;;;;22.43;22.65;97672.88;5044694;28;603;-73
2021/03/19 09:27:37;;;;;;;;;;;;;;;22.62;22.32;97666.13;5062107;28;1906;-71
2021/03/19 09:30:15;;;;;;;;;;;;;;;22.33;22.71;97659.91;5060728;28;686;-71
2021/03/19 09:32:42;;;;;;;;;;;;;;;21.80;23.28;97668.91;5061887;28;879;-73
2021/03/19 09:35:15;;;;;;;;;;;;;;;21.73;23.76;97674.81;5044257;28;931;-73
2021/03/19 09:37:40;;;;;;;;;;;;;;;21.85;23.39;97679.66;5044604;28;639;-72
2021/03/19 09:40:06;;;;;;;;;;;;;;;21.71;23.65;97680.13;5061723;28;651;-71
2021/03/19 09:42:31;;;;;;;;;;;;;;;21.78;23.55;97682.72;5062096;28;794;-72
2021/03/19 09:45:03;;;;;;;;;;;;;;;21.61;24.05;97669.94;5061681;28;702;-73
2021/03/19 09:47:30;;;;;;;;;;;;;;;22.06;23.10;97671.69;5060979;28;1901;-72
2021/03/19 09:50:04;;;;;;;;;;;;;;;22.51;22.86;97673.44;5061250;28;842;-75
2021/03/19 09:52:33;;;;;;;;;;;;;;;22.20;23.08;97674.09;5061606;28;721;-73
2021/03/19 09:54:58;;;;;;;;;;;;;;;21.37;24.22;97668.69;5061946;28;658;-72
2021/03/19 09:57:25;;;;;;;;;;;;;;;21.81;23.66;97662.00;5044342;28;597;-75
2021/03/19 10:00:09;;;;;;;;;;;;;;;21.76;23.84;97659.75;5058408;28;952;-72
2021/03/19 10:02:42;;;;;;;;;;;;;;;22.60;22.87;97665.00;5060543;28;966;-72
2021/03/19 10:05:11;;;;;;;;;;;;;;;22.40;22.62;97673.81;5055281;28;852;-72
2021/03/19 10:07:36;;;;;;;;;;;;;;;21.83;23.63;97682.16;5041174;28;1963;-73
2021/03/19 10:10:02;;;;;;;;;;;;;;;21.74;23.74;97681.25;5007631;28;1452;-72
2021/03/19 10:12:27;;;;;;;;;;;;;;;21.48;24.13;97681.25;5041330;28;649;-72
2021/03/19 10:14:54;;;;;;;;;;;;;;;22.34;22.98;97673.59;5041044;28;1114;-73
2021/03/19 10:17:22;;;;;;;;;;;;;;;22.65;22.30;97672.94;5040884;28;902;-73
2021/03/19 10:19:49;;;;;;;;;;;;;;;22.19;22.98;97675.34;5041296;28;1030;-71
2021/03/19 10:22:26;;;;;;;;;;;;;;;22.08;22.92;97686.22;5041282;28;654;-71
2021/03/19 10:24:52;;;;;;;;;;;;;;;21.70;23.57;97681.38;5041052;28;653;-71
2021/03/19 10:27:17;;;;;;;;;;;;;;;22.09;23.05;97687.81;5040761;28;1967;-71
2021/03/19 10:29:44;;;;;;;;;;;;;;;21.74;23.55;97684.09;5040681;28;920;-71
2021/03/19 10:32:19;;;;;;;;;;;;;;;21.94;23.31;97678.19;5040638;28;887;-71
2021/03/19 10:34:53;;;;;;;;;;;;;;;21.91;23.34;97682.72;5023595;28;883;-71
2021/03/19 10:37:21;;;;;;;;;;;;;;;21.93;23.58;97679.44;5023756;28;623;-71
2021/03/19 10:39:53;;;;;;;;;;;;;;;21.90;23.25;97686.00;5023993;28;1001;-71
2021/03/19 10:42:34;;;;;;;;;;;;;;;21.84;23.66;97677.28;5040401;28;653;-72
2021/03/19 10:45:00;;;;;;;;;;;;;;;21.75;23.76;97675.13;5023512;28;916;-71
2021/03/19 10:47:28;;;;;;;;;;;;;;;21.81;23.58;97679.00;5040165;28;1959;-71
2021/03/19 10:50:00;;;;;;;;;;;;;;;21.83;23.32;97676.50;5023990;28;788;-71
2021/03/19 10:52:25;;;;;;;;;;;;;;;21.65;23.77;97676.28;5023241;28;677;-73
2021/03/19 10:54:52;;;;;;;;;;;;;;;21.72;23.76;97673.22;5040510;28;774;-71
2021/03/19 10:57:21;;;;;;;;;;;;;;;22.22;22.87;97685.75;5022859;28;837;-71
2021/03/19 10:59:49;;;;;;;;;;;;;;;22.69;22.22;97686.97;5039881;28;809;-72
2021/03/19 11:02:19;;;;;;;;;;;;;;;22.58;22.17;97678.84;5040250;28;844;-73
2021/03/19 11:04:53;;;;;;;;;;;;;;;22.10;23.04;97678.88;5040328;28;654;-72
2021/03/19 11:07:19;;;;;;;;;;;;;;;21.67;23.79;97684.34;5040061;28;1895;-71
2021/03/19 11:10:03;;;;;;;;;;;;;;;21.62;23.78;97682.84;5040134;28;698;-72
2021/03/19 11:12:33;;;;;;;;;;;;;;;21.94;23.43;97675.34;5039730;28;874;-71
2021/03/19 11:14:59;;;;;;;;;;;;;;;21.82;23.56;97679.78;5048869;28;1006;-72
2021/03/19 11:17:24;;;;;;;;;;;;;;;21.77;23.68;97681.16;5059320;28;836;-72
2021/03/19 11:19:57;;;;;;;;;;;;;;;21.77;23.44;97684.00;5059712;28;659;-72
2021/03/19 11:22:33;;;;;;;;;;;;;;;21.67;23.52;97685.13;5059601;28;833;-72
2021/03/19 11:25:17;;;;;;;;;;;;;;;22.14;23.10;97690.09;5059701;28;885;-71
2021/03/19 11:27:42;;;;;;;;;;;;;;;22.38;22.77;97667.00;5035053;28;1914;-72
2021/03/19 11:30:12;;;;;;;;;;;;;;;22.36;22.71;97673.94;5058844;28;928;-72
2021/03/19 11:32:37;;;;;;;;;;;;;;;22.08;22.88;97672.06;5035793;28;836;-72
2021/03/19 11:35:15;;;;;;;;;;;;;;;21.80;23.23;97666.06;5039939;28;650;-73
2021/03/19 11:37:43;;;;;;;;;;;;;;;21.75;23.57;97663.81;5040079;28;606;-71
2021/03/19 11:40:12;;;;;;;;;;;;;;;22.36;22.72;97665.41;5039846;28;574;-71
2021/03/19 11:42:45;;;;;;;;;;;;;;;22.60;22.20;97659.34;5039567;28;807;-71
2021/03/19 11:45:12;;;;;;;;;;;;;;;22.75;22.23;97659.63;5039774;28;892;-71
2021/03/19 11:47:42;;;;;;;;;;;;;;;22.72;22.16;97649.97;5039763;28;1902;-72
2021/03/19 11:50:10;;;;;;;;;;;;;;;22.18;22.90;97648.25;5039871;28;686;-72
2021/03/19 11:52:36;;;;;;;;;;;;;;;21.93;23.12;97651.13;5040795;28;730;-72
2021/03/19 11:55:02;;;;;;;;;;;;;;;21.53;23.47;97655.22;5043879;28;737;-71
2021/03/19 11:57:28;;;;;;;;;;;;;;;21.92;23.27;97655.19;5043587;28;846;-71
2021/03/19 11:59:53;;;;;;;;;;;;;;;21.67;23.29;97639.81;5043348;28;983;-73
2021/03/19 12:02:21;;;;;;;;;;;;;;;21.60;23.54;97642.88;5043720;28;1003;-72
2021/03/19 12:04:46;;;;;;;;;;;;;;;21.67;23.37;97639.81;5043725;28;655;-71
2021/03/19 12:07:12;;;;;;;;;;;;;;;21.69;23.57;97636.53;5043748;28;1906;-72
2021/03/19 12:09:38;;;;;;;;;;;;;;;22.31;22.51;97636.88;5043234;28;1055;-71
2021/03/19 12:12:03;;;;;;;;;;;;;;;22.53;22.17;97626.34;5043660;28;821;-71
2021/03/19 12:14:28;;;;;;;;;;;;;;;22.63;22.33;97632.88;5043288;28;951;-72
2021/03/19 12:16:54;;;;;;;;;;;;;;;22.07;22.81;97628.75;5043181;28;840;-73
2021/03/19 12:19:19;;;;;;;;;;;;;;;21.79;23.20;97619.19;5043047;28;840;-71
2021/03/19 12:21:45;;;;;;;;;;;;;;;21.70;23.06;97626.78;5043737;28;770;-71
2021/03/19 12:24:11;;;;;;;;;;;;;;;22.29;22.82;97631.66;5042834;28;996;-71
2021/03/19 12:26:36;;;;;;;;;;;;;;;22.55;22.17;97620.22;5043200;28;1956;-71
2021/03/19 12:29:02;;;;;;;;;;;;;;;22.54;22.09;97627.16;5043185;28;861;-71
2021/03/19 12:31:27;;;;;;;;;;;;;;;22.40;22.80;97625.63;5044161;28;674;-73
2021/03/19 12:33:53;;;;;;;;;;;;;;;22.33;23.11;97635.19;5044274;28;750;-77
2021/03/19 12:36:18;;;;;;;;;;;;;;;22.38;23.05;97632.97;5043060;28;659;-73
2021/03/19 12:38:43;;;;;;;;;;;;;;;22.48;23.32;97634.66;5042473;28;829;-74
2021/03/19 12:41:09;;;;;;;;;;;;;;;22.27;23.41;97631.31;5042589;28;829;-73
2021/03/19 12:43:34;;;;;;;;;;;;;;;22.21;23.65;97636.00;5042766;28;1085;-75
2021/03/19 12:46:00;;;;;;;;;;;;;;;22.08;23.53;97636.00;5042779;28;1902;-73
2021/03/19 12:48:25;;;;;;;;;;;;;;;22.20;23.47;97642.91;5049599;28;951;-72
2021/03/19 12:50:51;;;;;;;;;;;;;;;22.17;23.50;97646.66;5063024;28;682;-74
2021/03/19 12:53:19;;;;;;;;;;;;;;;22.26;23.50;97646.75;5045340;28;970;-72
2021/03/19 12:55:44;;;;;;;;;;;;;;;22.40;23.33;97639.78;5062407;28;897;-73
2021/03/19 12:58:10;;;;;;;;;;;;;;;22.34;23.79;97644.47;5062177;28;959;-75
2021/03/19 13:00:35;;;;;;;;;;;;;;;22.63;23.51;97641.38;5062717;28;925;-76
2021/03/19 13:03:01;;;;;;;;;;;;;;;22.65;23.71;97638.91;5062821;28;678;-73
2021/03/19 13:05:27;;;;;;;;;;;;;;;22.63;23.62;97647.06;5062659;28;670;-72
2021/03/19 13:07:53;;;;;;;;;;;;;;;22.47;23.88;97652.91;5045057;28;2029;-73
2021/03/19 13:10:19;;;;;;;;;;;;;;;22.20;24.11;97644.97;5062016;28;947;-72
2021/03/19 13:12:45;;;;;;;;;;;;;;;22.25;24.28;97648.00;5061977;28;856;-72
2021/03/19 13:15:11;;;;;;;;;;;;;;;22.19;24.42;97641.34;5062149;28;1121;-73
2021/03/19 13:17:36;;;;;;;;;;;;;;;22.15;24.24;97652.00;5059907;28;1006;-71